sensor_id;sensor_type;location;lat;lon;timestamp;pressure;altitude;pressure_sealevel;temperature;humidity
65280;BME280;51878;55.748;48.742;2023-02-13T00:00:31;98882.06;;;-8.68;100.00
65280;BME280;51878;55.748;48.742;2023-02-13T00:02:59;98865.75;;;-8.75;100.00
65280;BME280;51878;55.748;48.742;2023-02-13T00:05:26;98882.72;;;-8.65;100.00
65280;BME280;51878;55.748;48.742;2023-02-13T00:07:53;98818.31;;;-9.05;100.00
65280;BME280;51878;55.748;48.742;2023-02-13T00:10:20;98882.72;;;-8.65;100.00
65280;BME280;51878;55.748;48.742;2023-02-13T00:12:48;98866.13;;;-8.65;100.00
65280;BME280;51878;55.748;48.742;2023-02-13T00:15:16;98900.31;;;-8.49;100.00
65280;BME280;51878;55.748;48.742;2023-02-13T00:17:42;98895.72;;;-8.62;100.00
65280;BME280;51878;55.748;48.742;2023-02-13T00:20:10;98897.47;;;-8.62;100.00
65280;BME280;51878;55.748;48.742;2023-02-13T00:22:38;98903.41;;;-8.59;100.00
65280;BME280;51878;55.748;48.742;2023-02-13T00:25:06;98888.56;;;-8.60;100.00
65280;BME280;51878;55.748;48.742;2023-02-13T00:27:33;98898.25;;;-8.60;100.00
65280;BME280;51878;55.748;48.742;2023-02-13T00:30:01;98868.22;;;-8.72;100.00
65280;BME280;51878;55.748;48.742;2023-02-13T00:32:30;98752.97;;;-9.45;100.00
65280;BME280;51878;55.748;48.742;2023-02-13T00:34:57;98901.94;;;-8.64;100.00
65280;BME280;51878;55.748;48.742;2023-02-13T00:37:25;98836.50;;;-9.02;100.00
65280;BME280;51878;55.748;48.742;2023-02-13T00:39:52;98899.00;;;-8.58;100.00
65280;BME280;51878;55.748;48.742;2023-02-13T00:42:19;98920.09;;;-8.60;100.00
65280;BME280;51878;55.748;48.742;2023-02-13T00:44:50;98885.03;;;-8.59;100.00
65280;BME280;51878;55.748;48.742;2023-02-13T00:47:17;98881.13;;;-8.85;100.00
65280;BME280;51878;55.748;48.742;2023-02-13T00:49:44;98863.97;;;-8.75;100.00
65280;BME280;51878;55.748;48.742;2023-02-13T00:52:11;98837.28;;;-9.00;100.00
65280;BME280;51878;55.748;48.742;2023-02-13T00:54:38;98884.34;;;-8.62;100.00
65280;BME280;51878;55.748;48.742;2023-02-13T00:57:08;98816.16;;;-9.15;100.00
65280;BME280;51878;55.748;48.742;2023-02-13T00:59:35;98873.94;;;-8.64;100.00
65280;BME280;51878;55.748;48.742;2023-02-13T01:02:02;98889.94;;;-8.68;100.00
65280;BME280;51878;55.748;48.742;2023-02-13T01:04:29;98907.97;;;-8.62;100.00
65280;BME280;51878;55.748;48.742;2023-02-13T01:06:56;98901.28;;;-8.68;100.00
65280;BME280;51878;55.748;48.742;2023-02-13T01:09:23;98846.34;;;-9.06;100.00
65280;BME280;51878;55.748;48.742;2023-02-13T01:11:51;98831.19;;;-9.01;100.00
65280;BME280;51878;55.748;48.742;2023-02-13T01:14:18;98869.75;;;-8.68;100.00
65280;BME280;51878;55.748;48.742;2023-02-13T01:16:45;98889.31;;;-8.74;100.00
65280;BME280;51878;55.748;48.742;2023-02-13T01:19:12;98894.56;;;-8.74;100.00
65280;BME280;51878;55.748;48.742;2023-02-13T01:21:39;98879.34;;;-8.84;100.00
65280;BME280;51878;55.748;48.742;2023-02-13T01:24:08;98834.13;;;-9.07;100.00
65280;BME280;51878;55.748;48.742;2023-02-13T01:26:35;98874.09;;;-8.84;100.00
65280;BME280;51878;55.748;48.742;2023-02-13T01:29:02;98835.59;;;-9.01;100.00
65280;BME280;51878;55.748;48.742;2023-02-13T01:31:29;98813.25;;;-9.26;100.00
65280;BME280;51878;55.748;48.742;2023-02-13T01:33:56;98898.97;;;-8.74;100.00
65280;BME280;51878;55.748;48.742;2023-02-13T01:36:24;98891.78;;;-8.70;100.00
65280;BME280;51878;55.748;48.742;2023-02-13T01:38:54;98855.19;;;-8.91;100.00
65280;BME280;51878;55.748;48.742;2023-02-13T01:41:22;98815.22;;;-9.13;100.00
65280;BME280;51878;55.748;48.742;2023-02-13T01:43:55;98824.72;;;-9.11;100.00
65280;BME280;51878;55.748;48.742;2023-02-13T01:46:39;98871.47;;;-8.84;100.00
65280;BME280;51878;55.748;48.742;2023-02-13T01:49:12;98912.53;;;-8.48;100.00
65280;BME280;51878;55.748;48.742;2023-02-13T01:51:41;98854.09;;;-8.87;100.00
65280;BME280;51878;55.748;48.742;2023-02-13T01:54:15;98889.94;;;-8.86;100.00
65280;BME280;51878;55.748;48.742;2023-02-13T01:56:49;98882.06;;;-8.86;100.00
65280;BME280;51878;55.748;48.742;2023-02-13T01:59:22;98910.72;;;-8.81;100.00
65280;BME280;51878;55.748;48.742;2023-02-13T02:01:52;98813.91;;;-9.22;100.00
65280;BME280;51878;55.748;48.742;2023-02-13T02:04:24;98826.03;;;-9.20;100.00
65280;BME280;51878;55.748;48.742;2023-02-13T02:07:12;98880.34;;;-8.87;100.00
65280;BME280;51878;55.748;48.742;2023-02-13T02:09:42;98882.31;;;-8.90;100.00
65280;BME280;51878;55.748;48.742;2023-02-13T02:12:30;98870.63;;;-8.85;100.00
65280;BME280;51878;55.748;48.742;2023-02-13T02:15:00;98894.44;;;-8.88;100.00
65280;BME280;51878;55.748;48.742;2023-02-13T02:17:31;98845.09;;;-9.16;100.00
65280;BME280;51878;55.748;48.742;2023-02-13T02:25:28;98894.25;;;-8.85;100.00
65280;BME280;51878;55.748;48.742;2023-02-13T02:31:18;98886.94;;;-8.96;100.00
65280;BME280;51878;55.748;48.742;2023-02-13T02:37:33;98880.00;;;-8.97;100.00
65280;BME280;51878;55.748;48.742;2023-02-13T02:39:52;98882.09;;;-9.03;100.00
65280;BME280;51878;55.748;48.742;2023-02-13T02:42:42;98832.69;;;-9.30;100.00
65280;BME280;51878;55.748;48.742;2023-02-13T02:48:05;98882.16;;;-9.05;100.00
65280;BME280;51878;55.748;48.742;2023-02-13T02:53:41;98837.63;;;-9.41;100.00
65280;BME280;51878;55.748;48.742;2023-02-13T02:56:26;98860.00;;;-9.17;100.00
65280;BME280;51878;55.748;48.742;2023-02-13T02:59:03;98814.38;;;-9.49;100.00
65280;BME280;51878;55.748;48.742;2023-02-13T03:01:52;98810.53;;;-9.42;100.00
65280;BME280;51878;55.748;48.742;2023-02-13T03:04:45;98827.97;;;-9.41;100.00
65280;BME280;51878;55.748;48.742;2023-02-13T03:07:32;98829.28;;;-9.32;100.00
65280;BME280;51878;55.748;48.742;2023-02-13T03:10:11;98893.25;;;-9.00;100.00
65280;BME280;51878;55.748;48.742;2023-02-13T03:13:02;98878.63;;;-9.04;100.00
65280;BME280;51878;55.748;48.742;2023-02-13T03:15:55;98855.84;;;-9.21;100.00
65280;BME280;51878;55.748;48.742;2023-02-13T03:18:45;98874.88;;;-9.17;100.00
65280;BME280;51878;55.748;48.742;2023-02-13T03:41:27;98785.59;;;-9.68;100.00
65280;BME280;51878;55.748;48.742;2023-02-13T03:46:45;98843.19;;;-9.47;100.00
65280;BME280;51878;55.748;48.742;2023-02-13T03:49:29;98875.81;;;-9.18;100.00
65280;BME280;51878;55.748;48.742;2023-02-13T03:53:07;98861.69;;;-9.33;100.00
65280;BME280;51878;55.748;48.742;2023-02-13T03:55:13;98868.66;;;-9.15;100.00
65280;BME280;51878;55.748;48.742;2023-02-13T03:58:08;98890.19;;;-8.90;100.00
65280;BME280;51878;55.748;48.742;2023-02-13T04:00:57;98858.53;;;-9.22;100.00
65280;BME280;51878;55.748;48.742;2023-02-13T04:06:16;98888.78;;;-9.15;100.00
65280;BME280;51878;55.748;48.742;2023-02-13T04:08:44;98690.94;;;-10.14;100.00
65280;BME280;51878;55.748;48.742;2023-02-13T04:11:29;98797.34;;;-9.58;100.00
65280;BME280;51878;55.748;48.742;2023-02-13T04:14:03;98796.63;;;-9.61;100.00
65280;BME280;51878;55.748;48.742;2023-02-13T04:16:42;98882.94;;;-9.03;100.00
65280;BME280;51878;55.748;48.742;2023-02-13T04:19:11;98883.28;;;-9.10;100.00
65280;BME280;51878;55.748;48.742;2023-02-13T04:21:39;98864.31;;;-9.16;100.00
65280;BME280;51878;55.748;48.742;2023-02-13T04:24:07;98875.28;;;-9.07;100.00
65280;BME280;51878;55.748;48.742;2023-02-13T04:26:37;98859.47;;;-9.41;100.00
65280;BME280;51878;55.748;48.742;2023-02-13T04:29:05;98831.84;;;-9.48;100.00
65280;BME280;51878;55.748;48.742;2023-02-13T04:31:35;98876.13;;;-9.24;100.00
65280;BME280;51878;55.748;48.742;2023-02-13T04:34:02;98821.25;;;-9.46;100.00
65280;BME280;51878;55.748;48.742;2023-02-13T04:36:29;98831.22;;;-9.53;100.00
65280;BME280;51878;55.748;48.742;2023-02-13T04:38:56;98753.16;;;-9.83;100.00
65280;BME280;51878;55.748;48.742;2023-02-13T04:41:23;98817.09;;;-9.50;100.00
65280;BME280;51878;55.748;48.742;2023-02-13T04:43:50;98885.25;;;-8.97;100.00
65280;BME280;51878;55.748;48.742;2023-02-13T04:46:18;98879.34;;;-9.02;100.00
65280;BME280;51878;55.748;48.742;2023-02-13T04:48:45;98887.63;;;-9.09;100.00
65280;BME280;51878;55.748;48.742;2023-02-13T04:51:12;98800.81;;;-9.40;100.00
65280;BME280;51878;55.748;48.742;2023-02-13T04:53:39;98864.59;;;-8.87;100.00
65280;BME280;51878;55.748;48.742;2023-02-13T04:56:06;98806.44;;;-9.30;100.00
65280;BME280;51878;55.748;48.742;2023-02-13T04:58:33;98813.28;;;-9.10;100.00
65280;BME280;51878;55.748;48.742;2023-02-13T05:01:00;98872.16;;;-8.81;100.00
65280;BME280;51878;55.748;48.742;2023-02-13T05:03:27;98847.06;;;-8.86;100.00
65280;BME280;51878;55.748;48.742;2023-02-13T05:05:54;98851.47;;;-8.87;100.00
65280;BME280;51878;55.748;48.742;2023-02-13T05:08:21;98879.31;;;-8.67;100.00
65280;BME280;51878;55.748;48.742;2023-02-13T05:10:48;98894.13;;;-8.48;100.00
65280;BME280;51878;55.748;48.742;2023-02-13T05:13:17;98786.03;;;-9.07;100.00
65280;BME280;51878;55.748;48.742;2023-02-13T05:15:47;98809.25;;;-9.00;100.00
65280;BME280;51878;55.748;48.742;2023-02-13T05:18:14;98790.00;;;-9.16;100.00
65280;BME280;51878;55.748;48.742;2023-02-13T05:20:42;98803.88;;;-9.14;100.00
65280;BME280;51878;55.748;48.742;2023-02-13T05:23:13;98859.47;;;-8.55;100.00
65280;BME280;51878;55.748;48.742;2023-02-13T05:25:49;98672.94;;;-9.69;99.77
65280;BME280;51878;55.748;48.742;2023-02-13T05:28:16;98793.19;;;-8.94;99.52
65280;BME280;51878;55.748;48.742;2023-02-13T05:31:01;98872.91;;;-8.61;99.09
65280;BME280;51878;55.748;48.742;2023-02-13T05:33:29;98825.06;;;-8.84;99.44
65280;BME280;51878;55.748;48.742;2023-02-13T05:35:56;98858.84;;;-8.44;99.01
65280;BME280;51878;55.748;48.742;2023-02-13T05:38:23;98749.59;;;-9.13;98.75
65280;BME280;51878;55.748;48.742;2023-02-13T05:40:50;98871.38;;;-8.34;99.03
65280;BME280;51878;55.748;48.742;2023-02-13T05:43:18;98799.78;;;-8.86;98.55
65280;BME280;51878;55.748;48.742;2023-02-13T05:45:45;98885.75;;;-8.23;98.38
65280;BME280;51878;55.748;48.742;2023-02-13T05:48:12;98860.38;;;-8.40;98.12
65280;BME280;51878;55.748;48.742;2023-02-13T05:50:39;98841.97;;;-8.56;98.55
65280;BME280;51878;55.748;48.742;2023-02-13T05:53:08;98780.19;;;-8.79;97.88
65280;BME280;51878;55.748;48.742;2023-02-13T05:55:35;98875.31;;;-8.41;98.03
65280;BME280;51878;55.748;48.742;2023-02-13T05:58:02;98835.91;;;-8.41;98.15
65280;BME280;51878;55.748;48.742;2023-02-13T06:00:29;98788.94;;;-8.47;97.22
65280;BME280;51878;55.748;48.742;2023-02-13T06:02:55;98867.44;;;-7.77;95.81
65280;BME280;51878;55.748;48.742;2023-02-13T06:05:25;98803.84;;;-8.00;94.39
65280;BME280;51878;55.748;48.742;2023-02-13T06:07:52;98848.38;;;-7.51;92.40
65280;BME280;51878;55.748;48.742;2023-02-13T06:10:19;98860.88;;;-7.70;91.72
65280;BME280;51878;55.748;48.742;2023-02-13T06:12:46;98867.06;;;-6.95;90.53
65280;BME280;51878;55.748;48.742;2023-02-13T06:15:13;98831.06;;;-5.95;87.04
65280;BME280;51878;55.748;48.742;2023-02-13T06:17:40;98865.13;;;-5.24;80.66
65280;BME280;51878;55.748;48.742;2023-02-13T06:20:07;98842.78;;;-4.67;76.74
65280;BME280;51878;55.748;48.742;2023-02-13T06:22:37;98850.38;;;-4.88;76.54
65280;BME280;51878;55.748;48.742;2023-02-13T06:25:04;98832.09;;;-4.52;74.24
65280;BME280;51878;55.748;48.742;2023-02-13T06:27:31;98839.81;;;-3.63;72.85
65280;BME280;51878;55.748;48.742;2023-02-13T06:29:58;98847.31;;;-2.28;67.54
65280;BME280;51878;55.748;48.742;2023-02-13T06:32:25;98837.88;;;-3.13;63.19
65280;BME280;51878;55.748;48.742;2023-02-13T06:34:52;98820.72;;;-1.94;63.43
65280;BME280;51878;55.748;48.742;2023-02-13T06:37:19;98794.81;;;-0.84;58.73
65280;BME280;51878;55.748;48.742;2023-02-13T06:39:46;98845.97;;;-1.34;61.11
65280;BME280;51878;55.748;48.742;2023-02-13T06:42:13;98850.78;;;-2.50;59.98
65280;BME280;51878;55.748;48.742;2023-02-13T06:44:40;98827.13;;;-1.42;56.97
65280;BME280;51878;55.748;48.742;2023-02-13T06:47:07;98775.88;;;-2.54;59.06
65280;BME280;51878;55.748;48.742;2023-02-13T06:49:34;98764.56;;;-2.33;59.68
65280;BME280;51878;55.748;48.742;2023-02-13T06:52:01;98766.81;;;-2.74;60.59
65280;BME280;51878;55.748;48.742;2023-02-13T06:54:28;98814.03;;;-1.66;58.37
65280;BME280;51878;55.748;48.742;2023-02-13T06:57:12;98825.22;;;-2.06;59.66
65280;BME280;51878;55.748;48.742;2023-02-13T06:59:39;98803.19;;;-1.10;58.43
65280;BME280;51878;55.748;48.742;2023-02-13T07:02:10;98803.25;;;-2.08;59.05
65280;BME280;51878;55.748;48.742;2023-02-13T07:04:37;98794.94;;;-2.15;58.92
65280;BME280;51878;55.748;48.742;2023-02-13T07:07:04;98813.56;;;0.96;51.09
65280;BME280;51878;55.748;48.742;2023-02-13T07:09:32;98763.94;;;2.61;47.28
65280;BME280;51878;55.748;48.742;2023-02-13T07:12:02;98786.97;;;4.53;43.40
65280;BME280;51878;55.748;48.742;2023-02-13T07:14:29;98832.84;;;3.39;43.27
65280;BME280;51878;55.748;48.742;2023-02-13T07:16:56;98787.44;;;2.93;44.20
65280;BME280;51878;55.748;48.742;2023-02-13T07:19:23;98766.78;;;3.03;44.46
65280;BME280;51878;55.748;48.742;2023-02-13T07:21:50;98795.50;;;3.37;41.49
65280;BME280;51878;55.748;48.742;2023-02-13T07:24:17;98809.06;;;4.30;40.94
65280;BME280;51878;55.748;48.742;2023-02-13T07:26:44;98777.59;;;0.90;46.03
65280;BME280;51878;55.748;48.742;2023-02-13T07:29:14;98687.84;;;1.92;45.33
65280;BME280;51878;55.748;48.742;2023-02-13T07:31:44;98760.06;;;1.82;44.20
65280;BME280;51878;55.748;48.742;2023-02-13T07:34:11;98782.03;;;4.24;41.76
65280;BME280;51878;55.748;48.742;2023-02-13T07:36:38;98804.69;;;3.87;40.25
65280;BME280;51878;55.748;48.742;2023-02-13T07:39:05;98835.53;;;3.39;42.21
65280;BME280;51878;55.748;48.742;2023-02-13T07:41:32;98834.34;;;4.20;41.56
65280;BME280;51878;55.748;48.742;2023-02-13T07:43:59;98828.28;;;3.83;38.91
65280;BME280;51878;55.748;48.742;2023-02-13T07:46:26;98799.41;;;2.63;41.68
65280;BME280;51878;55.748;48.742;2023-02-13T07:48:53;98798.13;;;4.99;38.27
65280;BME280;51878;55.748;48.742;2023-02-13T07:51:20;98831.44;;;4.13;40.40
65280;BME280;51878;55.748;48.742;2023-02-13T07:53:51;98837.34;;;4.75;39.71
65280;BME280;51878;55.748;48.742;2023-02-13T07:56:18;98840.44;;;5.22;37.25
65280;BME280;51878;55.748;48.742;2023-02-13T07:58:45;98854.84;;;5.78;36.39
65280;BME280;51878;55.748;48.742;2023-02-13T08:01:14;98834.59;;;6.15;35.23
65280;BME280;51878;55.748;48.742;2023-02-13T08:03:42;98797.13;;;5.16;36.86
65280;BME280;51878;55.748;48.742;2023-02-13T08:06:09;98836.06;;;5.37;37.17
65280;BME280;51878;55.748;48.742;2023-02-13T08:08:36;98646.31;;;3.38;37.54
65280;BME280;51878;55.748;48.742;2023-02-13T08:11:06;98855.50;;;4.82;38.93
65280;BME280;51878;55.748;48.742;2023-02-13T08:13:52;98836.41;;;4.42;39.27
65280;BME280;51878;55.748;48.742;2023-02-13T08:16:19;98744.69;;;4.71;36.92
65280;BME280;51878;55.748;48.742;2023-02-13T08:18:46;98829.50;;;4.90;37.13
65280;BME280;51878;55.748;48.742;2023-02-13T08:21:13;98792.44;;;4.27;37.56
65280;BME280;51878;55.748;48.742;2023-02-13T08:23:40;98838.00;;;4.19;39.61
65280;BME280;51878;55.748;48.742;2023-02-13T08:26:08;98829.69;;;2.99;41.87
65280;BME280;51878;55.748;48.742;2023-02-13T08:28:35;98772.06;;;3.39;41.27
65280;BME280;51878;55.748;48.742;2023-02-13T08:31:09;98760.66;;;3.63;40.04
65280;BME280;51878;55.748;48.742;2023-02-13T08:33:37;98776.81;;;4.22;39.56
65280;BME280;51878;55.748;48.742;2023-02-13T08:36:07;98823.53;;;4.54;39.03
65280;BME280;51878;55.748;48.742;2023-02-13T08:38:34;98807.72;;;3.66;40.21
65280;BME280;51878;55.748;48.742;2023-02-13T08:41:01;98764.22;;;2.94;41.72
65280;BME280;51878;55.748;48.742;2023-02-13T08:43:28;98761.72;;;2.74;42.00
65280;BME280;51878;55.748;48.742;2023-02-13T08:45:58;98809.31;;;3.50;41.30
65280;BME280;51878;55.748;48.742;2023-02-13T08:48:26;98808.34;;;3.07;41.66
65280;BME280;51878;55.748;48.742;2023-02-13T08:50:53;98713.56;;;2.56;41.84
65280;BME280;51878;55.748;48.742;2023-02-13T08:53:21;98617.34;;;0.35;43.88
65280;BME280;51878;55.748;48.742;2023-02-13T08:55:53;98782.28;;;3.36;42.49
65280;BME280;51878;55.748;48.742;2023-02-13T08:58:20;98785.56;;;3.82;40.46
65280;BME280;51878;55.748;48.742;2023-02-13T09:00:47;98779.97;;;4.09;40.13
65280;BME280;51878;55.748;48.742;2023-02-13T09:03:14;98739.16;;;2.23;43.88
65280;BME280;51878;55.748;48.742;2023-02-13T09:05:42;98720.19;;;2.52;42.08
65280;BME280;51878;55.748;48.742;2023-02-13T09:08:09;98777.81;;;4.13;40.73
65280;BME280;51878;55.748;48.742;2023-02-13T09:10:40;98793.88;;;3.00;42.80
65280;BME280;51878;55.748;48.742;2023-02-13T09:13:09;98633.22;;;1.76;43.51
65280;BME280;51878;55.748;48.742;2023-02-13T09:15:38;98779.97;;;1.60;43.44
65280;BME280;51878;55.748;48.742;2023-02-13T09:18:06;98706.88;;;2.42;43.05
65280;BME280;51878;55.748;48.742;2023-02-13T09:20:33;98670.66;;;3.18;41.50
65280;BME280;51878;55.748;48.742;2023-02-13T09:23:02;98666.34;;;2.73;41.27
65280;BME280;51878;55.748;48.742;2023-02-13T09:25:29;98611.84;;;3.43;39.95
65280;BME280;51878;55.748;48.742;2023-02-13T09:27:56;98747.31;;;2.75;41.76
65280;BME280;51878;55.748;48.742;2023-02-13T09:30:23;98752.34;;;2.96;42.20
65280;BME280;51878;55.748;48.742;2023-02-13T09:32:51;98754.81;;;2.89;40.91
65280;BME280;51878;55.748;48.742;2023-02-13T09:35:20;98704.16;;;1.71;44.25
65280;BME280;51878;55.748;48.742;2023-02-13T09:37:47;98611.56;;;2.59;41.28
65280;BME280;51878;55.748;48.742;2023-02-13T09:40:22;98753.72;;;3.00;42.04
65280;BME280;51878;55.748;48.742;2023-02-13T09:42:52;98735.97;;;1.64;44.44
65280;BME280;51878;55.748;48.742;2023-02-13T09:45:20;98735.22;;;1.34;43.88
65280;BME280;51878;55.748;48.742;2023-02-13T09:47:49;98741.00;;;3.28;41.79
65280;BME280;51878;55.748;48.742;2023-02-13T09:50:24;98748.91;;;3.30;41.58
65280;BME280;51878;55.748;48.742;2023-02-13T09:52:54;98709.31;;;3.16;42.08
65280;BME280;51878;55.748;48.742;2023-02-13T09:55:45;98753.19;;;3.75;40.61
65280;BME280;51878;55.748;48.742;2023-02-13T10:04:15;98706.59;;;4.51;37.56
65280;BME280;51878;55.748;48.742;2023-02-13T10:06:48;98745.16;;;3.49;40.53
65280;BME280;51878;55.748;48.742;2023-02-13T10:09:46;98700.19;;;3.26;40.13
65280;BME280;51878;55.748;48.742;2023-02-13T10:12:48;98747.66;;;3.42;39.69
65280;BME280;51878;55.748;48.742;2023-02-13T10:18:04;98719.84;;;2.47;42.04
65280;BME280;51878;55.748;48.742;2023-02-13T10:20:52;98747.47;;;2.20;42.22
65280;BME280;51878;55.748;48.742;2023-02-13T10:26:25;98681.91;;;0.29;47.08
65280;BME280;51878;55.748;48.742;2023-02-13T10:29:35;98728.88;;;-0.80;50.35
65280;BME280;51878;55.748;48.742;2023-02-13T10:32:36;98738.38;;;-1.94;54.47
65280;BME280;51878;55.748;48.742;2023-02-13T10:37:43;98727.75;;;0.13;49.02
65280;BME280;51878;55.748;48.742;2023-02-13T10:40:17;98557.41;;;-0.37;48.32
65280;BME280;51878;55.748;48.742;2023-02-13T10:43:15;98732.66;;;0.08;50.10
65280;BME280;51878;55.748;48.742;2023-02-13T10:49:30;98731.75;;;-1.56;54.59
65280;BME280;51878;55.748;48.742;2023-02-13T10:52:34;98733.22;;;-1.63;53.86
65280;BME280;51878;55.748;48.742;2023-02-13T11:00:55;98731.84;;;-0.33;51.55
65280;BME280;51878;55.748;48.742;2023-02-13T11:03:27;98738.88;;;-0.94;53.94
65280;BME280;51878;55.748;48.742;2023-02-13T11:05:56;98712.84;;;-1.21;53.30
65280;BME280;51878;55.748;48.742;2023-02-13T11:08:32;98599.72;;;-1.25;51.56
65280;BME280;51878;55.748;48.742;2023-02-13T11:11:00;98662.13;;;-2.36;54.86
65280;BME280;51878;55.748;48.742;2023-02-13T11:13:28;98665.94;;;-1.64;54.12
65280;BME280;51878;55.748;48.742;2023-02-13T11:16:06;98656.63;;;-2.89;57.00
65280;BME280;51878;55.748;48.742;2023-02-13T11:18:38;98715.94;;;-2.56;58.86
65280;BME280;51878;55.748;48.742;2023-02-13T11:21:19;98698.81;;;-2.52;57.83
65280;BME280;51878;55.748;48.742;2023-02-13T11:23:51;98706.78;;;-2.63;58.34
65280;BME280;51878;55.748;48.742;2023-02-13T11:32:00;98700.28;;;-2.82;60.50
65280;BME280;51878;55.748;48.742;2023-02-13T11:34:30;98685.78;;;-3.34;61.03
65280;BME280;51878;55.748;48.742;2023-02-13T11:37:27;98714.06;;;-3.46;63.23
65280;BME280;51878;55.748;48.742;2023-02-13T11:39:57;98692.84;;;-4.41;65.17
65280;BME280;51878;55.748;48.742;2023-02-13T11:42:33;98710.25;;;-4.62;68.25
65280;BME280;51878;55.748;48.742;2023-02-13T11:45:02;98715.22;;;-4.58;69.38
65280;BME280;51878;55.748;48.742;2023-02-13T11:47:41;98670.09;;;-4.80;69.52
65280;BME280;51878;55.748;48.742;2023-02-13T11:52:58;98641.91;;;-5.05;70.22
65280;BME280;51878;55.748;48.742;2023-02-13T11:55:38;98642.16;;;-5.21;72.00
65280;BME280;51878;55.748;48.742;2023-02-13T12:00:42;98665.31;;;-5.37;74.22
65280;BME280;51878;55.748;48.742;2023-02-13T12:03:25;98717.81;;;-5.33;75.47
65280;BME280;51878;55.748;48.742;2023-02-13T12:06:13;98690.22;;;-5.54;76.68
65280;BME280;51878;55.748;48.742;2023-02-13T12:08:45;98625.13;;;-6.07;78.06
65280;BME280;51878;55.748;48.742;2023-02-13T12:11:23;98706.22;;;-5.83;79.80
65280;BME280;51878;55.748;48.742;2023-02-13T12:13:56;98673.50;;;-6.06;80.59
65280;BME280;51878;55.748;48.742;2023-02-13T12:16:31;98616.88;;;-6.55;81.04
65280;BME280;51878;55.748;48.742;2023-02-13T12:19:04;98523.50;;;-7.32;82.51
65280;BME280;51878;55.748;48.742;2023-02-13T12:30:33;98656.47;;;-6.42;84.67
65280;BME280;51878;55.748;48.742;2023-02-13T12:44:38;98672.50;;;-6.45;88.80
65280;BME280;51878;55.748;48.742;2023-02-13T12:47:15;98681.16;;;-6.43;88.35
65280;BME280;51878;55.748;48.742;2023-02-13T12:55:50;98672.94;;;-6.66;89.31
65280;BME280;51878;55.748;48.742;2023-02-13T13:23:59;98646.28;;;-7.60;95.92
65280;BME280;51878;55.748;48.742;2023-02-13T13:26:40;98630.88;;;-7.80;96.82
65280;BME280;51878;55.748;48.742;2023-02-13T13:29:19;98622.59;;;-7.88;97.92
65280;BME280;51878;55.748;48.742;2023-02-13T13:32:02;98582.69;;;-8.25;98.28
65280;BME280;51878;55.748;48.742;2023-02-13T13:34:33;98642.78;;;-7.89;98.82
65280;BME280;51878;55.748;48.742;2023-02-13T13:37:16;98648.84;;;-8.03;99.71
65280;BME280;51878;55.748;48.742;2023-02-13T13:45:25;98644.13;;;-8.12;100.00
65280;BME280;51878;55.748;48.742;2023-02-13T13:50:35;98561.19;;;-8.77;100.00
65280;BME280;51878;55.748;48.742;2023-02-13T13:53:17;98649.09;;;-8.38;100.00
65280;BME280;51878;55.748;48.742;2023-02-13T14:01:17;98629.50;;;-8.46;100.00
65280;BME280;51878;55.748;48.742;2023-02-13T14:09:36;98602.63;;;-8.82;100.00
65280;BME280;51878;55.748;48.742;2023-02-13T14:11:55;98613.13;;;-8.82;100.00
65280;BME280;51878;55.748;48.742;2023-02-13T14:16:59;98621.22;;;-8.86;100.00
65280;BME280;51878;55.748;48.742;2023-02-13T14:24:56;98543.28;;;-9.32;100.00
65280;BME280;51878;55.748;48.742;2023-02-13T14:29:53;98528.28;;;-9.46;100.00
65280;BME280;51878;55.748;48.742;2023-02-13T14:34:59;98619.63;;;-8.89;100.00
65280;BME280;51878;55.748;48.742;2023-02-13T14:37:47;98618.97;;;-8.92;100.00
65280;BME280;51878;55.748;48.742;2023-02-13T14:43:14;98598.97;;;-9.11;100.00
65280;BME280;51878;55.748;48.742;2023-02-13T14:45:51;98548.44;;;-9.46;100.00
65280;BME280;51878;55.748;48.742;2023-02-13T14:48:24;98556.56;;;-9.35;100.00
65280;BME280;51878;55.748;48.742;2023-02-13T14:50:54;98604.31;;;-9.12;100.00
65280;BME280;51878;55.748;48.742;2023-02-13T14:53:27;98545.81;;;-9.46;100.00
65280;BME280;51878;55.748;48.742;2023-02-13T14:56:17;98632.59;;;-9.02;100.00
65280;BME280;51878;55.748;48.742;2023-02-13T14:58:51;98548.53;;;-9.48;100.00
65280;BME280;51878;55.748;48.742;2023-02-13T15:01:42;98409.69;;;-10.30;100.00
65280;BME280;51878;55.748;48.742;2023-02-13T15:06:43;98552.31;;;-9.38;100.00
65280;BME280;51878;55.748;48.742;2023-02-13T15:09:40;98627.94;;;-8.97;100.00
65280;BME280;51878;55.748;48.742;2023-02-13T15:14:54;98565.03;;;-9.30;100.00
65280;BME280;51878;55.748;48.742;2023-02-13T15:17:25;98518.56;;;-9.60;100.00
65280;BME280;51878;55.748;48.742;2023-02-13T15:19:57;98536.59;;;-9.38;100.00
65280;BME280;51878;55.748;48.742;2023-02-13T15:22:34;98570.22;;;-9.12;100.00
65280;BME280;51878;55.748;48.742;2023-02-13T15:25:02;98587.13;;;-9.02;100.00
65280;BME280;51878;55.748;48.742;2023-02-13T15:27:32;98595.16;;;-9.05;100.00
65280;BME280;51878;55.748;48.742;2023-02-13T15:30:20;98539.06;;;-9.34;100.00
65280;BME280;51878;55.748;48.742;2023-02-13T15:32:53;98574.00;;;-9.18;100.00
65280;BME280;51878;55.748;48.742;2023-02-13T15:35:35;98611.59;;;-9.02;100.00
65280;BME280;51878;55.748;48.742;2023-02-13T15:41:03;98544.72;;;-9.42;100.00
65280;BME280;51878;55.748;48.742;2023-02-13T15:43:43;98528.66;;;-9.52;100.00
65280;BME280;51878;55.748;48.742;2023-02-13T15:46:41;98546.81;;;-9.33;100.00
65280;BME280;51878;55.748;48.742;2023-02-13T15:49:16;98613.03;;;-8.96;100.00
65280;BME280;51878;55.748;48.742;2023-02-13T15:51:44;98597.19;;;-8.95;100.00
65280;BME280;51878;55.748;48.742;2023-02-13T15:54:28;98565.09;;;-9.16;100.00
65280;BME280;51878;55.748;48.742;2023-02-13T15:57:03;98627.63;;;-8.90;100.00
65280;BME280;51878;55.748;48.742;2023-02-13T15:59:36;98582.38;;;-9.11;100.00
65280;BME280;51878;55.748;48.742;2023-02-13T16:02:11;98533.81;;;-9.34;100.00
65280;BME280;51878;55.748;48.742;2023-02-13T16:04:41;98602.09;;;-9.04;100.00
65280;BME280;51878;55.748;48.742;2023-02-13T16:07:10;98580.75;;;-8.98;100.00